createdAt,value
2022-08-19T00:02:00.348Z,100512.00
2022-08-19T00:04:33.700Z,100506.84
2022-08-19T00:07:03.089Z,100511.31
2022-08-19T00:09:31.323Z,100513.47
2022-08-19T00:12:00.083Z,100520.88
2022-08-19T00:14:32.336Z,100524.41
2022-08-19T00:17:01.929Z,100518.31
2022-08-19T00:19:30.279Z,100513.94
2022-08-19T00:21:58.141Z,100512.34
2022-08-19T00:24:29.694Z,100517.72
2022-08-19T00:27:05.079Z,100520.66
2022-08-19T00:29:46.656Z,100513.94
2022-08-19T00:32:21.224Z,100516.72
2022-08-19T00:34:49.037Z,100524.97
2022-08-19T00:37:16.883Z,100529.06
2022-08-19T00:39:46.133Z,100521.47
2022-08-19T00:42:17.448Z,100519.22
2022-08-19T00:44:45.526Z,100512.41
2022-08-19T00:47:14.423Z,100510.56
2022-08-19T00:49:51.649Z,100503.72
2022-08-19T00:52:29.823Z,100492.19
2022-08-19T00:55:01.051Z,100503.06
2022-08-19T00:57:36.884Z,100495.41
2022-08-19T01:00:09.710Z,100500.53
2022-08-19T01:02:37.696Z,100492.81
2022-08-19T01:05:12.665Z,100505.44
2022-08-19T01:07:42.168Z,100505.69
2022-08-19T01:10:19.399Z,100503.16
2022-08-19T01:12:48.863Z,100494.06
2022-08-19T01:15:22.978Z,100505.44
2022-08-19T01:17:53.525Z,100508.13
2022-08-19T01:20:24.356Z,100516.72
2022-08-19T01:22:56.441Z,100513.09
2022-08-19T01:25:32.888Z,100522.72
2022-08-19T01:28:10.612Z,100530.38
2022-08-19T01:30:39.796Z,100528.19
2022-08-19T01:33:13.242Z,100528.69
2022-08-19T01:35:42.773Z,100530.41
2022-08-19T01:38:22.682Z,100529.75
2022-08-19T01:40:50.542Z,100533.88
2022-08-19T01:43:19.928Z,100532.78
2022-08-19T01:45:48.519Z,100535.66
2022-08-19T01:48:16.575Z,100528.25
2022-08-19T01:50:44.682Z,100533.69
2022-08-19T01:53:14.235Z,100531.53
2022-08-19T01:55:45.242Z,100541.41
2022-08-19T01:58:19.678Z,100550.91
2022-08-19T02:00:47.800Z,100554.91
2022-08-19T02:03:16.955Z,100544.03
2022-08-19T02:05:46.659Z,100556.34
2022-08-19T02:08:15.808Z,100541.72
2022-08-19T02:10:45.781Z,100528.50
2022-08-19T02:13:15.298Z,100525.69
2022-08-19T02:15:43.888Z,100513.47
2022-08-19T02:18:11.855Z,100489.53
2022-08-19T02:20:41.756Z,100470.03
2022-08-19T02:23:13.907Z,100459.38
2022-08-19T02:25:47.972Z,100446.63
2022-08-19T02:28:18.724Z,100435.16
2022-08-19T02:30:49.332Z,100414.09
2022-08-19T02:33:18.348Z,100418.50
2022-08-19T02:35:47.750Z,100417.47
2022-08-19T02:38:29.097Z,100416.75
2022-08-19T02:41:01.990Z,100408.41
2022-08-19T02:43:34.467Z,100415.97
2022-08-19T02:46:03.943Z,100413.88
2022-08-19T02:48:33.754Z,100426.00
2022-08-19T02:51:01.729Z,100423.56
2022-08-19T02:53:30.619Z,100411.69
2022-08-19T02:55:59.951Z,100427.69
2022-08-19T02:58:28.542Z,100424.81
2022-08-19T03:00:58.623Z,100439.13
2022-08-19T03:03:26.780Z,100447.81
2022-08-19T03:06:05.497Z,100440.81
2022-08-19T03:08:33.544Z,100439.63
2022-08-19T03:11:02.721Z,100442.81
2022-08-19T03:13:30.678Z,100440.72
2022-08-19T03:15:58.974Z,100445.22
2022-08-19T03:18:26.924Z,100447.53
2022-08-19T03:20:55.928Z,100450.00
2022-08-19T03:23:24.609Z,100436.59
2022-08-19T03:26:03.875Z,100430.25
2022-08-19T03:28:51.118Z,100416.31
2022-08-19T03:31:43.282Z,100424.06
2022-08-19T03:34:12.605Z,100435.78
2022-08-19T03:36:42.196Z,100427.47
2022-08-19T03:39:11.637Z,100436.53
2022-08-19T03:41:44.392Z,100422.16
2022-08-19T03:44:18.064Z,100424.34
2022-08-19T03:46:48.406Z,100422.59
2022-08-19T03:49:18.337Z,100429.63
2022-08-19T03:51:48.972Z,100439.84
2022-08-19T03:54:21.064Z,100438.13
2022-08-19T03:56:51.291Z,100438.06
2022-08-19T03:59:26.847Z,100444.56
2022-08-19T04:01:57.025Z,100439.16
2022-08-19T04:04:28.976Z,100439.25
2022-08-19T04:06:58.697Z,100433.06
2022-08-19T04:09:27.903Z,100425.03
2022-08-19T04:11:58.808Z,100433.16
2022-08-19T04:14:31.535Z,100433.91
2022-08-19T04:17:00.823Z,100434.31
2022-08-19T04:19:31.637Z,100431.66
2022-08-19T04:22:00.221Z,100431.16
2022-08-19T04:24:28.473Z,100445.97
2022-08-19T04:26:56.871Z,100456.63
2022-08-19T04:29:28.093Z,100453.78
2022-08-19T04:31:57.650Z,100458.91
2022-08-19T04:34:28.169Z,100462.75
2022-08-19T04:36:59.213Z,100455.09
2022-08-19T04:39:45.073Z,100446.66
2022-08-19T04:42:30.758Z,100446.22
2022-08-19T04:45:00.840Z,100441.34
2022-08-19T04:47:49.345Z,100443.81
2022-08-19T04:50:17.534Z,100462.97
2022-08-19T04:52:45.354Z,100461.88
2022-08-19T04:55:15.120Z,100464.72
2022-08-19T04:57:43.304Z,100465.56
2022-08-19T05:00:13.974Z,100463.09
2022-08-19T05:02:41.874Z,100459.00
2022-08-19T05:05:10.544Z,100452.91
2022-08-19T05:07:39.112Z,100458.38
2022-08-19T05:10:08.112Z,100450.25
2022-08-19T05:12:36.542Z,100446.44
2022-08-19T05:15:07.941Z,100436.63
2022-08-19T05:17:38.901Z,100440.72
2022-08-19T05:20:27.217Z,100440.31
2022-08-19T05:22:55.323Z,100427.41
2022-08-19T05:25:26.219Z,100423.66
2022-08-19T05:27:54.020Z,100416.00
2022-08-19T05:33:12.222Z,100423.44
2022-08-19T05:35:42.074Z,100420.00
2022-08-19T05:38:10.340Z,100417.69
2022-08-19T05:40:39.570Z,100426.66
2022-08-19T05:43:10.045Z,100426.41
2022-08-19T05:45:42.949Z,100416.41
2022-08-19T05:48:13.345Z,100420.53
2022-08-19T05:50:43.066Z,100421.19
2022-08-19T05:53:10.957Z,100419.94
2022-08-19T05:55:40.582Z,100425.13
2022-08-19T05:58:08.905Z,100420.34
2022-08-19T06:00:36.927Z,100416.78
2022-08-19T06:03:12.743Z,100430.28
2022-08-19T06:05:51.800Z,100440.63
2022-08-19T06:08:34.448Z,100441.09
2022-08-19T06:11:17.923Z,100440.47
2022-08-19T06:13:48.529Z,100450.97
2022-08-19T06:16:20.539Z,100448.00
2022-08-19T06:18:48.479Z,100451.50
2022-08-19T06:21:17.633Z,100436.88
2022-08-19T06:23:45.813Z,100430.19
2022-08-19T06:26:14.833Z,100433.97
2022-08-19T06:28:46.006Z,100427.53
2022-08-19T06:31:15.571Z,100430.53
2022-08-19T06:33:43.987Z,100435.66
2022-08-19T06:36:28.117Z,100439.72
2022-08-19T06:38:57.847Z,100438.19
2022-08-19T06:41:26.406Z,100450.13
2022-08-19T06:43:56.365Z,100450.44
2022-08-19T06:46:25.629Z,100452.13
2022-08-19T06:48:55.326Z,100462.78
2022-08-19T06:51:25.825Z,100456.50
2022-08-19T06:53:58.094Z,100465.06
2022-08-19T06:56:32.026Z,100467.03
2022-08-19T06:59:00.050Z,100477.28
2022-08-19T07:01:28.178Z,100475.69
2022-08-19T07:03:56.196Z,100484.81
2022-08-19T07:06:44.119Z,100489.25
2022-08-19T07:09:18.497Z,100491.66
2022-08-19T07:11:48.378Z,100491.34
2022-08-19T07:14:19.900Z,100485.75
2022-08-19T07:16:50.462Z,100470.94
2022-08-19T07:19:20.812Z,100473.88
2022-08-19T07:21:53.679Z,100463.06
2022-08-19T07:24:24.680Z,100469.53
2022-08-19T07:26:54.756Z,100471.78
2022-08-19T07:29:25.772Z,100459.19
2022-08-19T07:32:00.074Z,100470.31
2022-08-19T07:34:31.467Z,100477.81
2022-08-19T07:37:00.607Z,100481.94
2022-08-19T07:39:33.044Z,100490.03
2022-08-19T07:42:07.254Z,100494.41
2022-08-19T07:44:35.798Z,100498.13
2022-08-19T07:47:05.502Z,100505.13
2022-08-19T07:49:33.470Z,100511.47
2022-08-19T07:52:08.120Z,100510.75
2022-08-19T07:54:39.638Z,100505.34
2022-08-19T07:57:08.953Z,100502.16
2022-08-19T07:59:37.604Z,100503.81
2022-08-19T08:02:06.050Z,100501.00
2022-08-19T08:04:51.901Z,100503.75
2022-08-19T08:07:38.820Z,100513.97
2022-08-19T08:10:12.603Z,100517.03
2022-08-19T08:13:08.547Z,100513.69
2022-08-19T08:15:42.668Z,100518.16
2022-08-19T08:18:11.397Z,100528.38
2022-08-19T08:20:39.905Z,100529.75
2022-08-19T08:23:26.307Z,100523.47
2022-08-19T08:25:58.879Z,100534.09
2022-08-19T08:28:30.047Z,100541.34
2022-08-19T08:30:59.644Z,100539.69
2022-08-19T08:33:33.675Z,100531.53
2022-08-19T08:36:03.746Z,100543.91
2022-08-19T08:38:39.745Z,100543.72
2022-08-19T08:41:20.983Z,100542.50
2022-08-19T08:43:52.950Z,100545.22
2022-08-19T08:46:31.238Z,100540.38
2022-08-19T08:49:09.751Z,100543.72
2022-08-19T08:51:47.644Z,100550.63
2022-08-19T08:54:22.673Z,100545.75
2022-08-19T08:56:55.768Z,100542.31
2022-08-19T08:59:33.247Z,100544.88
2022-08-19T09:02:02.187Z,100554.09
2022-08-19T09:04:30.764Z,100548.22
2022-08-19T09:07:34.496Z,100557.63
2022-08-19T09:10:17.766Z,100551.56
2022-08-19T09:13:09.635Z,100556.19
2022-08-19T09:15:47.558Z,100557.03
2022-08-19T09:18:19.269Z,100550.03
2022-08-19T09:20:48.914Z,100545.47
2022-08-19T09:23:16.936Z,100547.59
2022-08-19T09:25:46.075Z,100534.81
2022-08-19T09:28:22.100Z,100530.03
2022-08-19T09:30:53.185Z,100529.22
2022-08-19T09:33:21.172Z,100528.25
2022-08-19T09:35:53.368Z,100528.09
2022-08-19T09:38:22.305Z,100529.28
2022-08-19T09:40:51.633Z,100521.84
2022-08-19T09:43:27.813Z,100525.81
2022-08-19T09:46:02.561Z,100528.91
2022-08-19T09:48:30.569Z,100522.34
2022-08-19T09:51:05.863Z,100520.16
2022-08-19T09:53:33.666Z,100517.88
2022-08-19T09:56:04.308Z,100517.94
2022-08-19T09:58:32.724Z,100524.00
2022-08-19T10:01:04.364Z,100520.66
2022-08-19T10:03:35.096Z,100522.03
2022-08-19T10:06:14.995Z,100525.31
2022-08-19T10:08:50.487Z,100528.00
2022-08-19T10:11:28.621Z,100531.06
2022-08-19T10:14:07.644Z,100528.31
2022-08-19T10:16:39.729Z,100529.91
2022-08-19T10:19:07.867Z,100529.28
2022-08-19T10:21:36.231Z,100524.50
2022-08-19T10:24:07.116Z,100526.56
2022-08-19T10:26:42.896Z,100528.34
2022-08-19T10:29:10.963Z,100535.72
2022-08-19T10:32:01.033Z,100528.03
2022-08-19T10:34:28.563Z,100525.81
2022-08-19T10:37:01.010Z,100520.81
2022-08-19T10:39:31.704Z,100514.97
2022-08-19T10:42:11.447Z,100522.03
2022-08-19T10:44:39.573Z,100525.72
2022-08-19T10:47:21.841Z,100520.34
2022-08-19T10:50:12.100Z,100525.56
2022-08-19T10:52:50.028Z,100528.94
2022-08-19T10:55:39.594Z,100524.47
2022-08-19T10:58:14.957Z,100526.84
2022-08-19T11:00:44.422Z,100525.28
2022-08-19T11:03:12.635Z,100532.75
2022-08-19T11:05:42.176Z,100530.50
2022-08-19T11:08:18.195Z,100532.84
2022-08-19T11:10:54.770Z,100532.16
2022-08-19T11:13:25.542Z,100542.91
2022-08-19T11:16:05.301Z,100533.84
2022-08-19T11:18:37.301Z,100540.97
2022-08-19T11:21:15.314Z,100543.56
2022-08-19T11:23:43.159Z,100547.69
2022-08-19T11:26:11.410Z,100547.03
2022-08-19T11:28:40.752Z,100542.50
2022-08-19T11:31:13.836Z,100547.00
2022-08-19T11:33:42.006Z,100547.69
2022-08-19T11:36:16.982Z,100548.19
2022-08-19T11:38:45.667Z,100554.75
2022-08-19T11:41:13.637Z,100550.03
2022-08-19T11:43:43.058Z,100550.25
2022-08-19T11:46:15.475Z,100552.88
2022-08-19T11:48:44.362Z,100559.72
2022-08-19T11:51:16.069Z,100554.72
2022-08-19T11:53:44.729Z,100557.94
2022-08-19T11:56:13.387Z,100560.41
2022-08-19T11:58:44.550Z,100559.66
2022-08-19T12:01:16.412Z,100572.72
2022-08-19T12:03:45.844Z,100567.13
2022-08-19T12:06:20.653Z,100567.34
2022-08-19T12:08:49.392Z,100569.97
2022-08-19T12:11:17.560Z,100568.56
2022-08-19T12:13:47.191Z,100575.06
2022-08-19T12:16:18.788Z,100571.81
2022-08-19T12:18:48.194Z,100583.38
2022-08-19T12:21:17.317Z,100584.28
2022-08-19T12:23:47.372Z,100587.88
2022-08-19T12:26:15.523Z,100584.22
2022-08-19T12:28:43.500Z,100583.25
2022-08-19T12:31:13.352Z,100580.03
2022-08-19T12:33:42.513Z,100582.84
2022-08-19T12:36:14.455Z,100574.44
2022-08-19T12:38:43.931Z,100570.38
2022-08-19T12:41:16.377Z,100580.97
2022-08-19T12:43:44.245Z,100577.03
2022-08-19T12:46:15.115Z,100586.25
2022-08-19T12:48:45.947Z,100585.56
2022-08-19T12:51:19.024Z,100579.41
2022-08-19T12:53:47.584Z,100575.47
2022-08-19T12:56:22.284Z,100582.84
2022-08-19T12:58:52.973Z,100578.16
2022-08-19T13:01:23.466Z,100573.50
2022-08-19T13:03:53.477Z,100579.41
2022-08-19T13:06:23.565Z,100570.50
2022-08-19T13:08:53.694Z,100572.72
2022-08-19T13:11:26.129Z,100575.50
2022-08-19T13:13:56.140Z,100577.78
2022-08-19T13:16:25.547Z,100584.31
2022-08-19T13:18:53.780Z,100599.47
2022-08-19T13:21:24.843Z,100595.41
2022-08-19T13:23:54.001Z,100595.69
2022-08-19T13:26:22.747Z,100589.00
2022-08-19T13:29:09.208Z,100587.34
2022-08-19T13:32:00.654Z,100583.47
2022-08-19T13:34:33.958Z,100580.72
2022-08-19T13:37:03.945Z,100584.66
2022-08-19T13:39:33.369Z,100579.28
2022-08-19T13:42:02.403Z,100580.78
2022-08-19T13:44:31.116Z,100582.72
2022-08-19T13:47:07.766Z,100576.44
2022-08-19T13:49:37.805Z,100587.50
2022-08-19T13:52:06.694Z,100586.72
2022-08-19T13:54:34.634Z,100582.88
2022-08-19T13:57:02.710Z,100580.00
2022-08-19T13:59:30.676Z,100573.53
2022-08-19T14:02:00.384Z,100575.22
2022-08-19T14:04:29.798Z,100562.06
2022-08-19T14:06:58.332Z,100574.50
2022-08-19T14:09:26.207Z,100575.03
2022-08-19T14:11:54.066Z,100569.66
2022-08-19T14:14:22.354Z,100562.97
2022-08-19T14:16:52.738Z,100574.28
2022-08-19T14:19:20.543Z,100556.56
2022-08-19T14:21:49.996Z,100558.66
2022-08-19T14:24:17.895Z,100561.06
2022-08-19T14:26:45.813Z,100569.88
2022-08-19T14:29:13.594Z,100569.25
2022-08-19T14:31:43.617Z,100573.75
2022-08-19T14:34:13.654Z,100576.75
2022-08-19T14:36:42.636Z,100576.38
2022-08-19T14:39:12.497Z,100584.34
2022-08-19T14:41:43.120Z,100581.41
2022-08-19T14:44:13.341Z,100575.41
2022-08-19T14:46:42.086Z,100577.81
2022-08-19T14:49:17.327Z,100574.06
2022-08-19T14:51:46.546Z,100574.78
2022-08-19T14:54:15.971Z,100576.75
2022-08-19T14:56:44.292Z,100562.41
2022-08-19T14:59:12.324Z,100566.50
2022-08-19T15:01:40.189Z,100568.50
2022-08-19T15:04:08.185Z,100575.69
2022-08-19T15:06:36.156Z,100572.41
2022-08-19T15:09:04.985Z,100590.94
2022-08-19T15:11:35.038Z,100592.69
2022-08-19T15:14:03.274Z,100593.97
2022-08-19T15:16:31.275Z,100606.41
2022-08-19T15:19:01.091Z,100614.09
2022-08-19T15:21:31.325Z,100598.47
2022-08-19T15:24:01.530Z,100612.09
2022-08-19T15:26:33.176Z,100618.16
2022-08-19T15:29:03.237Z,100611.69
2022-08-19T15:31:35.070Z,100615.16
2022-08-19T15:34:06.735Z,100628.25
2022-08-19T15:36:35.165Z,100623.16
2022-08-19T15:39:05.306Z,100624.09
2022-08-19T15:41:34.446Z,100632.84
2022-08-19T15:44:10.016Z,100637.50
2022-08-19T15:46:41.098Z,100644.19
2022-08-19T15:49:10.986Z,100639.19
2022-08-19T15:51:41.908Z,100626.31
2022-08-19T15:54:13.500Z,100636.97
2022-08-19T15:57:01.339Z,100643.22
2022-08-19T15:59:47.907Z,100632.75
2022-08-19T16:02:37.181Z,100626.13
2022-08-19T16:05:26.702Z,100622.75
2022-08-19T16:07:55.601Z,100623.47
2022-08-19T16:10:27.199Z,100624.88
2022-08-19T16:12:57.401Z,100625.97
2022-08-19T16:15:28.318Z,100617.03
2022-08-19T16:17:57.834Z,100621.16
2022-08-19T16:20:28.034Z,100612.16
2022-08-19T16:22:58.143Z,100618.31
2022-08-19T16:25:29.000Z,100613.78
2022-08-19T16:28:07.347Z,100617.53
2022-08-19T16:30:40.713Z,100626.69
2022-08-19T16:33:09.769Z,100628.31
2022-08-19T16:35:38.637Z,100633.84
2022-08-19T16:38:06.811Z,100624.94
2022-08-19T16:40:35.878Z,100621.63
2022-08-19T16:43:04.509Z,100631.47
2022-08-19T16:45:32.429Z,100630.34
2022-08-19T16:48:01.664Z,100636.88
2022-08-19T16:50:48.371Z,100634.41
2022-08-19T16:53:19.033Z,100639.44
2022-08-19T16:55:50.661Z,100638.63
2022-08-19T16:58:19.218Z,100638.69
2022-08-19T17:00:48.470Z,100652.84
2022-08-19T17:03:19.690Z,100647.84
2022-08-19T17:06:03.568Z,100650.44
2022-08-19T17:08:34.230Z,100651.91
2022-08-19T17:11:17.739Z,100647.22
2022-08-19T17:13:47.698Z,100633.13
2022-08-19T17:16:16.886Z,100630.22
2022-08-19T17:18:46.345Z,100639.63
2022-08-19T17:21:14.310Z,100636.59
2022-08-19T17:23:43.958Z,100636.00
2022-08-19T17:26:16.774Z,100631.53
2022-08-19T17:28:49.649Z,100643.72
2022-08-19T17:31:21.231Z,100645.59
2022-08-19T17:33:51.577Z,100644.06
2022-08-19T17:36:23.302Z,100651.50
2022-08-19T17:38:52.237Z,100650.56
2022-08-19T17:41:20.221Z,100644.59
2022-08-19T17:43:48.162Z,100640.66
2022-08-19T17:46:18.750Z,100645.03
2022-08-19T17:48:52.746Z,100651.13
2022-08-19T17:51:27.525Z,100647.41
2022-08-19T17:53:55.979Z,100658.25
2022-08-19T17:56:24.808Z,100666.44
2022-08-19T17:59:00.105Z,100673.38
2022-08-19T18:01:40.276Z,100674.91
2022-08-19T18:04:20.322Z,100673.94
2022-08-19T18:06:53.588Z,100665.59
2022-08-19T18:09:27.301Z,100673.69
2022-08-19T18:11:57.758Z,100677.91
2022-08-19T18:14:33.935Z,100675.28
2022-08-19T18:17:09.125Z,100677.53
2022-08-19T18:19:43.086Z,100684.81
2022-08-19T18:22:13.788Z,100696.44
2022-08-19T18:24:42.902Z,100693.59
2022-08-19T18:27:14.345Z,100693.34
2022-08-19T18:29:43.289Z,100689.63
2022-08-19T18:32:14.845Z,100683.44
2022-08-19T18:34:45.809Z,100690.41
2022-08-19T18:37:14.305Z,100699.09
2022-08-19T18:39:59.473Z,100689.09
2022-08-19T18:42:44.962Z,100690.72
2022-08-19T18:45:30.922Z,100694.28
2022-08-19T18:48:26.893Z,100700.78
2022-08-19T18:50:58.020Z,100706.09
2022-08-19T18:53:29.149Z,100716.44
2022-08-19T18:55:58.065Z,100721.75
2022-08-19T18:58:33.864Z,100719.81
2022-08-19T19:01:11.292Z,100720.66
2022-08-19T19:03:43.106Z,100720.66
2022-08-19T19:06:13.897Z,100729.00
2022-08-19T19:08:41.965Z,100727.63
2022-08-19T19:11:10.442Z,100730.81
2022-08-19T19:13:41.019Z,100737.25
2022-08-19T19:16:11.496Z,100744.16
2022-08-19T19:18:39.949Z,100742.78
2022-08-19T19:21:08.703Z,100740.44
2022-08-19T19:23:40.769Z,100747.41
2022-08-19T19:26:10.423Z,100752.81
2022-08-19T19:28:43.895Z,100755.44
2022-08-19T19:31:15.565Z,100745.13
2022-08-19T19:33:45.236Z,100758.59
2022-08-19T19:36:13.963Z,100754.59
2022-08-19T19:38:48.873Z,100751.47
2022-08-19T19:41:20.963Z,100757.16
2022-08-19T19:43:56.778Z,100767.41
2022-08-19T19:46:38.677Z,100768.28
2022-08-19T19:49:07.384Z,100765.56
2022-08-19T19:51:37.770Z,100777.66
2022-08-19T19:54:08.302Z,100774.41
2022-08-19T19:56:36.252Z,100781.06
2022-08-19T19:59:04.321Z,100770.63
2022-08-19T20:01:32.440Z,100767.34
2022-08-19T20:04:02.144Z,100765.97
2022-08-19T20:06:31.037Z,100768.63
2022-08-19T20:09:10.489Z,100769.03
2022-08-19T20:11:44.692Z,100772.41
2022-08-19T20:14:16.278Z,100769.97
2022-08-19T20:16:46.329Z,100765.34
2022-08-19T20:19:18.671Z,100765.91
2022-08-19T20:21:51.334Z,100776.66
2022-08-19T20:24:24.897Z,100772.41
2022-08-19T20:26:54.694Z,100777.72
2022-08-19T20:29:38.014Z,100776.25
2022-08-19T20:32:07.900Z,100765.41
2022-08-19T20:34:35.877Z,100761.28
2022-08-19T20:37:03.985Z,100751.75
2022-08-19T20:39:32.091Z,100750.00
2022-08-19T20:42:01.419Z,100759.09
2022-08-19T20:44:29.326Z,100753.91
2022-08-19T20:47:01.684Z,100748.41
2022-08-19T20:49:31.057Z,100759.84
2022-08-19T20:51:59.354Z,100758.94
2022-08-19T20:54:27.592Z,100749.06
2022-08-19T20:56:56.199Z,100755.28
2022-08-19T20:59:25.848Z,100749.19
2022-08-19T21:01:54.302Z,100763.13
2022-08-19T21:04:23.203Z,100752.84
2022-08-19T21:06:51.809Z,100741.38
2022-08-19T21:09:19.825Z,100734.00
2022-08-19T21:11:48.096Z,100723.31
2022-08-19T21:14:16.349Z,100724.09
2022-08-19T21:16:46.199Z,100731.19
2022-08-19T21:19:14.218Z,100727.00
2022-08-19T21:21:42.059Z,100724.59
2022-08-19T21:24:10.517Z,100724.25
2022-08-19T21:26:38.659Z,100732.75
2022-08-19T21:29:06.948Z,100742.31
2022-08-19T21:31:35.171Z,100756.56
2022-08-19T21:34:05.327Z,100764.78
2022-08-19T21:36:33.150Z,100773.63
2022-08-19T21:39:00.970Z,100778.94
2022-08-19T21:41:28.880Z,100772.41
2022-08-19T21:43:56.851Z,100771.41
2022-08-19T21:46:24.769Z,100780.81
2022-08-19T21:48:52.585Z,100771.81
2022-08-19T21:51:21.785Z,100770.84
2022-08-19T21:53:49.786Z,100761.66
2022-08-19T21:56:21.350Z,100765.28
2022-08-19T21:58:49.268Z,100768.84
2022-08-19T22:01:18.063Z,100767.56
2022-08-19T22:03:45.900Z,100761.50
2022-08-19T22:06:13.723Z,100763.00
2022-08-19T22:08:44.771Z,100766.56
2022-08-19T22:11:13.169Z,100760.59
2022-08-19T22:13:41.752Z,100768.34
2022-08-19T22:16:11.103Z,100763.72
2022-08-19T22:18:39.245Z,100752.56
2022-08-19T22:21:11.652Z,100750.63
2022-08-19T22:23:42.369Z,100742.06
2022-08-19T22:26:10.818Z,100740.38
2022-08-19T22:28:39.555Z,100741.66
2022-08-19T22:31:08.146Z,100728.00
2022-08-19T22:33:36.892Z,100732.28
2022-08-19T22:36:07.468Z,100739.03
2022-08-19T22:38:35.878Z,100747.06
2022-08-19T22:41:07.833Z,100745.34
2022-08-19T22:43:36.866Z,100751.63
2022-08-19T22:46:06.421Z,100759.72
2022-08-19T22:48:46.410Z,100759.22
2022-08-19T22:51:32.253Z,100755.97
2022-08-19T22:54:00.409Z,100760.19
2022-08-19T22:56:31.789Z,100752.69
2022-08-19T22:58:59.915Z,100748.19
2022-08-19T23:01:30.282Z,100743.22
2022-08-19T23:04:00.205Z,100735.38
2022-08-19T23:06:33.538Z,100732.66
2022-08-19T23:09:04.836Z,100742.00
2022-08-19T23:11:35.825Z,100741.06
2022-08-19T23:14:10.361Z,100749.47
2022-08-19T23:16:41.652Z,100740.63
2022-08-19T23:19:10.889Z,100746.06
2022-08-19T23:21:38.960Z,100734.34
2022-08-19T23:24:07.504Z,100735.53
2022-08-19T23:26:37.004Z,100742.66
2022-08-19T23:29:24.208Z,100735.53
2022-08-19T23:31:52.115Z,100747.25
2022-08-19T23:34:20.023Z,100760.22
2022-08-19T23:36:48.326Z,100762.88
2022-08-19T23:39:16.235Z,100772.38
2022-08-19T23:41:45.371Z,100765.53
2022-08-19T23:44:14.777Z,100762.72
2022-08-19T23:46:54.702Z,100747.69
2022-08-19T23:49:25.374Z,100743.81
2022-08-19T23:51:54.867Z,100746.19
2022-08-19T23:54:23.280Z,100738.97
2022-08-19T23:57:03.573Z,100741.16
2022-08-19T23:59:42.453Z,100742.78
